createdAt,value
2019-04-21T00:00:35.536Z,4.74
2019-04-21T00:03:15.210Z,4.67
2019-04-21T00:06:07.565Z,4.73
2019-04-21T00:08:48.466Z,4.41
2019-04-21T00:11:11.126Z,4.35
2019-04-21T00:13:33.129Z,4.55
2019-04-21T00:16:02.387Z,4.60
2019-04-21T00:18:46.454Z,4.94
2019-04-21T00:21:25.530Z,4.88
2019-04-21T00:24:00.368Z,4.93
2019-04-21T00:26:42.906Z,4.88
2019-04-21T00:29:19.273Z,4.87
2019-04-21T00:31:41.935Z,4.67
2019-04-21T00:34:02.580Z,4.71
2019-04-21T00:36:47.111Z,5.03
2019-04-21T00:39:36.478Z,4.49
2019-04-21T00:42:08.629Z,4.39
2019-04-21T00:44:29.484Z,4.32
2019-04-21T00:47:08.458Z,3.74
2019-04-21T00:49:45.360Z,3.96
2019-04-21T00:52:43.684Z,4.04
2019-04-21T00:55:14.033Z,4.36
2019-04-21T00:57:38.870Z,4.04
2019-04-21T01:00:16.130Z,4.17
2019-04-21T01:05:16.688Z,4.08
2019-04-21T01:07:48.009Z,3.94
2019-04-21T01:10:15.008Z,3.93
2019-04-21T01:12:56.102Z,3.87
2019-04-21T01:15:38.613Z,3.95
2019-04-21T01:18:06.369Z,3.84
2019-04-21T01:20:17.928Z,3.69
2019-04-21T01:22:49.824Z,3.83
2019-04-21T01:25:30.194Z,4.25
2019-04-21T01:28:15.135Z,4.44
2019-04-21T01:30:50.347Z,4.53
2019-04-21T01:33:26.267Z,4.46
2019-04-21T01:35:53.713Z,4.40
2019-04-21T01:38:34.315Z,4.32
2019-04-21T01:41:08.037Z,4.22
2019-04-21T01:43:35.778Z,4.19
2019-04-21T01:46:06.717Z,4.14
2019-04-21T01:48:34.252Z,4.13
2019-04-21T01:51:11.526Z,4.05
2019-04-21T01:53:48.346Z,4.03
2019-04-21T01:56:31.821Z,4.02
2019-04-21T01:58:54.016Z,3.99
2019-04-21T02:01:46.244Z,3.94
2019-04-21T02:04:13.987Z,3.90
2019-04-21T02:06:44.446Z,3.92
2019-04-21T02:09:15.266Z,3.89
2019-04-21T02:11:56.505Z,3.84
2019-04-21T02:14:31.106Z,3.66
2019-04-21T02:16:59.289Z,3.71
2019-04-21T02:19:28.734Z,3.66
2019-04-21T02:21:59.573Z,3.64
2019-04-21T02:27:14.908Z,3.48
2019-04-21T02:29:48.654Z,3.48
2019-04-21T02:32:35.705Z,3.47
2019-04-21T02:42:46.311Z,3.49
2019-04-21T02:45:20.885Z,3.55
2019-04-21T02:50:28.280Z,3.49
2019-04-21T02:55:28.981Z,3.46
2019-04-21T02:58:06.124Z,3.48
2019-04-21T03:01:03.269Z,3.56
2019-04-21T03:03:54.995Z,3.51
2019-04-21T03:06:56.372Z,3.43
2019-04-21T03:09:25.953Z,3.50
2019-04-21T03:11:56.072Z,3.61
2019-04-21T03:14:40.814Z,3.72
2019-04-21T03:16:57.706Z,3.83
2019-04-21T03:22:20.966Z,4.01
2019-04-21T03:25:00.951Z,4.24
2019-04-21T03:40:02.549Z,4.29
2019-04-21T03:42:38.839Z,4.37
2019-04-21T03:47:38.336Z,4.55
2019-04-21T03:50:11.088Z,4.61
2019-04-21T03:55:48.750Z,4.49
2019-04-21T03:58:14.836Z,4.47
2019-04-21T04:00:58.278Z,4.41
2019-04-21T04:06:08.024Z,4.68
2019-04-21T04:09:03.527Z,4.66
2019-04-21T04:11:31.575Z,4.70
2019-04-21T04:14:14.253Z,4.86
2019-04-21T04:16:26.955Z,4.78
2019-04-21T04:21:44.254Z,4.96
2019-04-21T04:26:57.815Z,5.39
2019-04-21T04:31:43.905Z,5.56
2019-04-21T04:34:29.149Z,5.59
2019-04-21T04:44:54.276Z,6.30
2019-04-21T04:54:55.461Z,7.27
2019-04-21T05:00:14.307Z,7.43
2019-04-21T05:07:53.894Z,7.67
2019-04-21T05:10:18.235Z,7.63
2019-04-21T05:12:43.837Z,8.22
2019-04-21T05:15:17.871Z,8.18
2019-04-21T05:17:50.672Z,8.35
2019-04-21T05:20:45.977Z,8.26
2019-04-21T05:22:53.284Z,8.46
2019-04-21T05:25:23.685Z,8.70
2019-04-21T05:27:56.371Z,8.96
2019-04-21T05:30:45.036Z,9.23
2019-04-21T05:33:20.512Z,9.23
2019-04-21T05:36:02.055Z,9.07
2019-04-21T05:38:44.878Z,9.37
2019-04-21T05:41:13.088Z,10.16
2019-04-21T05:44:01.927Z,9.61
2019-04-21T05:46:35.631Z,9.97
2019-04-21T05:49:10.518Z,9.95
2019-04-21T05:51:55.716Z,9.79
2019-04-21T05:57:05.920Z,10.01
2019-04-21T05:59:43.621Z,10.66
2019-04-21T06:07:28.855Z,10.70
2019-04-21T06:10:00.125Z,10.90
2019-04-21T06:12:38.156Z,10.95
2019-04-21T06:15:06.995Z,11.20
2019-04-21T06:17:44.654Z,10.86
2019-04-21T06:20:15.382Z,10.97
2019-04-21T06:22:50.612Z,10.68
2019-04-21T06:25:43.157Z,10.84
2019-04-21T06:28:04.729Z,10.95
2019-04-21T06:30:33.269Z,10.85
2019-04-21T06:33:09.941Z,11.18
2019-04-21T06:36:12.675Z,11.24
2019-04-21T06:38:53.856Z,11.05
2019-04-21T06:41:22.752Z,11.33
2019-04-21T06:43:56.345Z,11.22
2019-04-21T06:46:30.947Z,11.26
2019-04-21T06:49:00.259Z,11.56
2019-04-21T06:51:32.285Z,11.92
2019-04-21T06:56:41.279Z,11.81
2019-04-21T06:59:10.938Z,11.36
2019-04-21T07:01:52.637Z,11.55
2019-04-21T07:04:37.758Z,11.98
2019-04-21T07:06:57.496Z,12.27
2019-04-21T07:09:47.451Z,11.88
2019-04-21T07:12:02.281Z,12.17
2019-04-21T07:14:34.622Z,11.79
2019-04-21T07:17:11.367Z,11.83
2019-04-21T07:19:49.975Z,11.95
2019-04-21T07:22:23.034Z,11.76
2019-04-21T07:24:51.897Z,12.30
2019-04-21T07:27:22.304Z,12.08
2019-04-21T07:29:58.504Z,12.22
2019-04-21T07:32:49.741Z,12.17
2019-04-21T07:35:03.643Z,12.37
2019-04-21T07:37:36.616Z,12.14
2019-04-21T07:40:07.730Z,12.57
2019-04-21T07:42:40.078Z,12.38
2019-04-21T07:45:11.711Z,12.20
2019-04-21T07:47:53.099Z,12.34
2019-04-21T07:50:35.043Z,12.00
2019-04-21T07:53:27.678Z,12.42
2019-04-21T07:55:39.237Z,12.67
2019-04-21T07:58:43.787Z,12.71
2019-04-21T08:01:07.756Z,12.88
2019-04-21T08:03:38.934Z,12.92
2019-04-21T08:06:18.739Z,13.05
2019-04-21T08:08:48.830Z,12.34
2019-04-21T08:11:14.879Z,12.88
2019-04-21T08:13:55.089Z,12.77
2019-04-21T08:18:59.824Z,12.64
2019-04-21T08:21:35.456Z,12.63
2019-04-21T08:24:06.191Z,12.57
2019-04-21T08:29:20.793Z,12.84
2019-04-21T08:32:14.564Z,12.93
2019-04-21T08:34:21.492Z,13.05
2019-04-21T08:36:57.571Z,12.73
2019-04-21T08:39:39.514Z,12.65
2019-04-21T08:42:08.476Z,13.00
2019-04-21T08:44:40.268Z,13.30
2019-04-21T08:47:15.470Z,13.77
2019-04-21T08:49:42.829Z,13.15
2019-04-21T08:52:28.384Z,13.24
2019-04-21T08:54:55.785Z,13.03
2019-04-21T08:57:37.695Z,12.67
2019-04-21T09:00:29.598Z,13.00
2019-04-21T09:03:02.398Z,13.06
2019-04-21T09:05:32.578Z,13.02
2019-04-21T09:08:06.650Z,13.19
2019-04-21T09:10:44.433Z,13.41
2019-04-21T09:13:14.841Z,13.05
2019-04-21T09:15:41.627Z,12.79
2019-04-21T09:18:13.398Z,12.59
2019-04-21T09:20:57.634Z,12.84
2019-04-21T09:23:25.653Z,13.08
2019-04-21T09:25:57.445Z,13.07
2019-04-21T09:28:27.257Z,12.86
2019-04-21T09:30:53.507Z,12.98
2019-04-21T09:33:28.048Z,12.98
2019-04-21T09:36:01.202Z,13.46
2019-04-21T09:38:36.033Z,13.10
2019-04-21T09:41:06.711Z,13.11
2019-04-21T09:43:43.870Z,13.24
2019-04-21T09:46:09.827Z,13.60
2019-04-21T09:48:49.783Z,13.88
2019-04-21T09:51:17.741Z,13.62
2019-04-21T09:53:58.339Z,13.65
2019-04-21T09:56:31.525Z,13.03
2019-04-21T09:59:05.555Z,13.49
2019-04-21T10:01:45.109Z,13.89
2019-04-21T10:04:05.868Z,13.93
2019-04-21T10:06:37.811Z,13.93
2019-04-21T10:09:14.157Z,13.34
2019-04-21T10:11:43.864Z,13.86
2019-04-21T10:14:15.615Z,13.65
2019-04-21T10:16:57.250Z,13.65
2019-04-21T10:19:29.715Z,13.51
2019-04-21T10:22:03.966Z,13.43
2019-04-21T10:24:34.554Z,13.69
2019-04-21T10:27:07.298Z,13.71
2019-04-21T10:29:43.207Z,13.58
2019-04-21T10:32:13.548Z,13.92
2019-04-21T10:34:45.321Z,13.70
2019-04-21T10:37:17.121Z,13.81
2019-04-21T10:39:49.613Z,13.77
2019-04-21T10:42:21.513Z,13.51
2019-04-21T10:44:53.188Z,13.80
2019-04-21T10:47:25.048Z,13.72
2019-04-21T10:49:56.606Z,13.81
2019-04-21T10:52:33.985Z,14.06
2019-04-21T10:55:19.160Z,14.02
2019-04-21T10:57:39.955Z,14.04
2019-04-21T11:00:13.937Z,13.62
2019-04-21T11:02:48.699Z,13.51
2019-04-21T11:05:20.826Z,13.87
2019-04-21T11:08:08.115Z,13.61
2019-04-21T11:10:29.776Z,13.71
2019-04-21T11:13:05.879Z,13.90
2019-04-21T11:15:50.785Z,13.79
2019-04-21T11:18:23.967Z,13.70
2019-04-21T11:20:55.676Z,13.88
2019-04-21T11:23:27.476Z,14.24
2019-04-21T11:26:00.129Z,13.90
2019-04-21T11:28:31.811Z,13.81
2019-04-21T11:31:04.753Z,14.08
2019-04-21T11:33:37.600Z,14.14
2019-04-21T11:36:13.377Z,14.34
2019-04-21T11:39:07.383Z,13.87
2019-04-21T11:41:25.645Z,14.20
2019-04-21T11:43:59.107Z,14.60
2019-04-21T11:46:34.240Z,14.17
2019-04-21T11:49:06.398Z,14.17
2019-04-21T11:51:38.025Z,14.19
2019-04-21T11:54:10.835Z,14.11
2019-04-21T11:56:43.218Z,14.11
2019-04-21T11:59:15.545Z,13.92
2019-04-21T12:01:47.666Z,14.06
2019-04-21T12:04:19.204Z,14.06
2019-04-21T12:06:52.874Z,14.20
2019-04-21T12:09:30.705Z,14.32
2019-04-21T12:12:03.399Z,14.05
2019-04-21T12:14:36.307Z,14.17
2019-04-21T12:17:07.967Z,14.26
2019-04-21T12:19:40.787Z,14.29
2019-04-21T12:22:20.138Z,14.11
2019-04-21T12:24:47.036Z,14.24
2019-04-21T12:27:18.532Z,14.12
2019-04-21T12:29:51.519Z,14.24
2019-04-21T12:32:34.023Z,14.12
2019-04-21T12:35:10.040Z,14.09
2019-04-21T12:37:42.793Z,14.20
2019-04-21T12:40:14.835Z,14.06
2019-04-21T12:42:48.318Z,14.15
2019-04-21T12:45:22.000Z,14.26
2019-04-21T12:47:55.531Z,14.63
2019-04-21T12:50:28.230Z,14.65
2019-04-21T12:53:00.116Z,14.86
2019-04-21T12:55:36.629Z,14.75
2019-04-21T12:58:05.549Z,14.96
2019-04-21T13:00:38.866Z,14.47
2019-04-21T13:03:10.375Z,14.30
2019-04-21T13:05:43.331Z,14.61
2019-04-21T13:08:15.472Z,14.87
2019-04-21T13:10:48.446Z,14.46
2019-04-21T13:13:20.065Z,14.40
2019-04-21T13:15:53.661Z,14.50
2019-04-21T13:18:25.318Z,14.32
2019-04-21T13:20:59.339Z,14.37
2019-04-21T13:23:32.110Z,14.30
2019-04-21T13:26:04.352Z,14.66
2019-04-21T13:28:37.516Z,14.78
2019-04-21T13:31:10.350Z,14.46
2019-04-21T13:33:42.415Z,14.49
2019-04-21T13:36:15.700Z,14.57
2019-04-21T13:39:32.730Z,14.40
2019-04-21T13:41:50.469Z,14.30
2019-04-21T13:44:15.622Z,14.41
2019-04-21T13:46:49.004Z,14.47
2019-04-21T13:49:23.367Z,14.55
2019-04-21T13:51:56.215Z,14.84
2019-04-21T13:54:27.814Z,14.60
2019-04-21T13:57:00.671Z,14.73
2019-04-21T13:59:34.303Z,14.58
2019-04-21T14:02:06.863Z,14.76
2019-04-21T14:04:38.434Z,14.76
2019-04-21T14:07:10.128Z,14.87
2019-04-21T14:09:50.020Z,14.97
2019-04-21T14:12:15.024Z,14.87
2019-04-21T14:14:48.273Z,15.07
2019-04-21T14:17:21.330Z,15.24
2019-04-21T14:19:55.002Z,15.22
2019-04-21T14:22:31.717Z,15.02
2019-04-21T14:25:10.759Z,15.03
2019-04-21T14:27:46.998Z,15.05
2019-04-21T14:30:20.534Z,14.98
2019-04-21T14:32:54.085Z,14.91
2019-04-21T14:35:29.534Z,15.05
2019-04-21T14:38:02.706Z,14.88
2019-04-21T14:40:36.716Z,14.91
2019-04-21T14:43:14.163Z,14.88
2019-04-21T14:45:50.502Z,14.73
2019-04-21T14:48:43.048Z,14.57
2019-04-21T14:51:19.070Z,14.49
2019-04-21T14:53:56.338Z,14.32
2019-04-21T14:56:29.357Z,14.25
2019-04-21T14:59:02.628Z,14.31
2019-04-21T15:01:37.723Z,14.29
2019-04-21T15:04:09.897Z,14.27
2019-04-21T15:06:43.313Z,14.30
2019-04-21T15:09:15.364Z,14.27
2019-04-21T15:11:47.703Z,14.26
2019-04-21T15:14:20.123Z,14.22
2019-04-21T15:16:51.836Z,14.31
2019-04-21T15:19:24.584Z,14.32
2019-04-21T15:21:56.709Z,14.24
2019-04-21T15:24:30.016Z,14.23
2019-04-21T15:27:02.948Z,14.27
2019-04-21T15:29:35.018Z,14.20
2019-04-21T15:32:08.182Z,14.27
2019-04-21T15:34:42.385Z,14.25
2019-04-21T15:37:14.054Z,14.18
2019-04-21T15:39:46.880Z,14.23
2019-04-21T15:42:18.657Z,14.34
2019-04-21T15:44:50.614Z,14.37
2019-04-21T15:47:23.982Z,14.35
2019-04-21T15:50:02.807Z,14.32
2019-04-21T15:52:30.050Z,14.33
2019-04-21T15:55:06.186Z,14.23
2019-04-21T15:57:47.034Z,14.23
2019-04-21T16:00:24.722Z,14.19
2019-04-21T16:02:56.726Z,14.14
2019-04-21T16:05:28.657Z,14.03
2019-04-21T16:08:00.363Z,13.96
2019-04-21T16:10:43.057Z,13.81
2019-04-21T16:13:05.879Z,13.84
2019-04-21T16:15:38.657Z,13.65
2019-04-21T16:18:12.048Z,13.60
2019-04-21T16:20:43.973Z,13.51
2019-04-21T16:23:16.183Z,13.41
2019-04-21T16:25:48.679Z,13.41
2019-04-21T16:28:21.539Z,13.24
2019-04-21T16:30:54.338Z,13.18
2019-04-21T16:33:27.124Z,13.07
2019-04-21T16:35:59.815Z,13.00
2019-04-21T16:38:31.546Z,12.92
2019-04-21T16:41:06.944Z,12.99
2019-04-21T16:43:38.124Z,13.03
2019-04-21T16:46:10.793Z,12.89
2019-04-21T16:48:44.177Z,12.89
2019-04-21T16:51:16.426Z,12.60
2019-04-21T16:53:50.449Z,12.60
2019-04-21T16:56:24.772Z,12.38
2019-04-21T16:58:58.884Z,12.25
2019-04-21T17:01:32.297Z,12.15
2019-04-21T17:04:04.635Z,12.15
2019-04-21T17:06:38.313Z,12.13
2019-04-21T17:09:10.673Z,12.05
2019-04-21T17:11:44.765Z,11.89
2019-04-21T17:14:33.136Z,11.86
2019-04-21T17:17:16.038Z,11.78
2019-04-21T17:19:29.452Z,11.78
2019-04-21T17:21:57.514Z,11.73
2019-04-21T17:24:30.534Z,11.63
2019-04-21T17:27:02.858Z,11.66
2019-04-21T17:29:35.051Z,11.75
2019-04-21T17:32:09.350Z,11.69
2019-04-21T17:34:41.038Z,11.60
2019-04-21T17:37:13.067Z,11.62
2019-04-21T17:39:45.074Z,11.86
2019-04-21T17:42:26.501Z,11.61
2019-04-21T17:44:51.243Z,11.51
2019-04-21T17:47:36.381Z,11.49
2019-04-21T17:50:07.778Z,11.45
2019-04-21T17:52:48.836Z,11.25
2019-04-21T17:55:29.831Z,11.42
2019-04-21T17:58:16.294Z,11.41
2019-04-21T18:04:01.614Z,11.13
2019-04-21T18:06:05.351Z,11.06
2019-04-21T18:08:48.349Z,10.85
2019-04-21T18:11:05.998Z,10.78
2019-04-21T18:13:32.741Z,10.72
2019-04-21T18:16:16.179Z,10.71
2019-04-21T18:18:39.046Z,10.67
2019-04-21T18:21:12.512Z,10.69
2019-04-21T18:24:00.724Z,10.64
2019-04-21T18:26:39.882Z,10.56
2019-04-21T18:29:01.107Z,10.53
2019-04-21T18:31:39.804Z,10.51
2019-04-21T18:34:27.374Z,10.58
2019-04-21T18:37:06.534Z,10.43
2019-04-21T18:39:52.478Z,10.48
2019-04-21T18:42:42.198Z,10.38
2019-04-21T18:48:12.483Z,10.10
2019-04-21T18:50:50.942Z,10.20
2019-04-21T18:53:50.403Z,10.21
2019-04-21T18:56:11.222Z,9.98
2019-04-21T18:58:42.515Z,10.02
2019-04-21T19:01:20.717Z,10.08
2019-04-21T19:03:52.202Z,9.93
2019-04-21T19:06:40.571Z,9.87
2019-04-21T19:09:11.773Z,9.82
2019-04-21T19:11:48.035Z,9.96
2019-04-21T19:14:40.084Z,9.85
2019-04-21T19:17:11.082Z,9.96
2019-04-21T19:22:04.881Z,9.85
2019-04-21T19:24:33.200Z,9.72
2019-04-21T19:27:12.067Z,9.63
2019-04-21T19:29:54.006Z,9.60
2019-04-21T19:32:21.494Z,9.54
2019-04-21T19:34:36.436Z,9.62
2019-04-21T19:37:11.572Z,9.70
2019-04-21T19:39:53.928Z,9.66
2019-04-21T19:42:22.658Z,9.48
2019-04-21T19:45:03.306Z,9.47
2019-04-21T19:47:38.930Z,9.33
2019-04-21T19:50:10.806Z,9.23
2019-04-21T19:52:39.909Z,9.14
2019-04-21T19:55:00.979Z,9.13
2019-04-21T19:57:34.691Z,9.27
2019-04-21T20:00:10.118Z,9.30
2019-04-21T20:02:43.007Z,9.23
2019-04-21T20:05:24.023Z,9.29
2019-04-21T20:08:05.471Z,9.24
2019-04-21T20:10:39.721Z,9.28
2019-04-21T20:13:14.491Z,9.30
2019-04-21T20:15:51.082Z,9.34
2019-04-21T20:18:13.973Z,9.32
2019-04-21T20:20:35.229Z,9.30
2019-04-21T20:23:15.012Z,9.30
2019-04-21T20:25:47.417Z,9.20
2019-04-21T20:28:29.437Z,9.21
2019-04-21T20:31:09.690Z,9.21
2019-04-21T20:36:15.008Z,9.22
2019-04-21T20:38:35.813Z,9.20
2019-04-21T20:41:16.125Z,9.21
2019-04-21T20:43:54.231Z,9.21
2019-04-21T20:46:24.931Z,9.18
2019-04-21T20:48:52.326Z,9.07
2019-04-21T20:51:28.399Z,8.97
2019-04-21T20:54:03.182Z,8.95
2019-04-21T20:56:40.949Z,9.10
2019-04-21T20:59:07.503Z,8.98
2019-04-21T21:01:43.362Z,8.91
2019-04-21T21:04:13.793Z,8.73
2019-04-21T21:06:48.345Z,8.72
2019-04-21T21:09:18.583Z,8.70
2019-04-21T21:12:20.368Z,8.73
2019-04-21T21:14:31.970Z,8.65
2019-04-21T21:17:13.105Z,8.56
2019-04-21T21:19:48.723Z,8.55
2019-04-21T21:22:07.690Z,8.55
2019-04-21T21:24:49.700Z,8.61
2019-04-21T21:27:19.592Z,8.51
2019-04-21T21:29:50.214Z,8.44
2019-04-21T21:32:25.859Z,8.44
2019-04-21T21:34:59.645Z,8.42
2019-04-21T21:37:39.372Z,8.33
2019-04-21T21:40:12.687Z,8.33
2019-04-21T21:42:27.883Z,8.27
2019-04-21T21:45:06.121Z,8.18
2019-04-21T21:47:49.907Z,8.15
2019-04-21T21:50:11.069Z,8.15
2019-04-21T21:52:47.785Z,8.27
2019-04-21T21:55:11.928Z,8.14
2019-04-21T21:57:50.386Z,8.11
2019-04-21T22:00:23.998Z,7.89
2019-04-21T22:03:03.541Z,7.89
2019-04-21T22:05:42.099Z,7.89
2019-04-21T22:08:04.699Z,7.91
2019-04-21T22:10:36.977Z,7.92
2019-04-21T22:13:14.105Z,7.89
2019-04-21T22:15:43.579Z,7.86
2019-04-21T22:18:34.977Z,7.85
2019-04-21T22:21:03.629Z,7.83
2019-04-21T22:23:29.529Z,7.82
2019-04-21T22:25:57.585Z,7.73
2019-04-21T22:28:29.697Z,7.72
2019-04-21T22:31:05.617Z,7.74
2019-04-21T22:33:41.950Z,7.60
2019-04-21T22:36:20.992Z,7.61
2019-04-21T22:38:59.908Z,7.61
2019-04-21T22:41:26.570Z,7.53
2019-04-21T22:43:51.653Z,7.52
2019-04-21T22:46:22.376Z,7.58
2019-04-21T22:48:59.520Z,7.57
2019-04-21T22:51:35.800Z,7.51
2019-04-21T22:54:01.469Z,7.50
2019-04-21T22:56:34.122Z,7.45
2019-04-21T22:59:10.863Z,7.48
2019-04-21T23:01:42.478Z,7.62
2019-04-21T23:04:15.846Z,7.51
2019-04-21T23:06:55.812Z,7.52
2019-04-21T23:09:22.545Z,7.51
2019-04-21T23:11:57.639Z,7.52
2019-04-21T23:14:27.979Z,7.45
2019-04-21T23:17:23.160Z,7.35
2019-04-21T23:19:46.030Z,7.29
2019-04-21T23:22:21.477Z,7.21
2019-04-21T23:25:05.074Z,7.16
2019-04-21T23:27:26.349Z,7.11
2019-04-21T23:30:13.224Z,7.15
2019-04-21T23:32:34.147Z,7.11
2019-04-21T23:34:55.416Z,7.05
2019-04-21T23:37:28.974Z,7.01
2019-04-21T23:40:07.612Z,6.88
2019-04-21T23:42:37.120Z,6.92
2019-04-21T23:45:08.732Z,6.89
2019-04-21T23:47:51.655Z,6.84
2019-04-21T23:50:29.463Z,6.83
2019-04-21T23:52:49.749Z,6.90
2019-04-21T23:55:23.112Z,6.89
2019-04-21T23:58:02.312Z,6.91
